createdAt,value
2017-10-12T00:00:00.095Z,71.20
2017-10-12T00:02:28.444Z,71.90
2017-10-12T00:04:56.110Z,71.20
2017-10-12T00:07:23.637Z,70.40
2017-10-12T00:09:51.196Z,70.90
2017-10-12T00:12:18.779Z,70.70
2017-10-12T00:14:46.377Z,69.50
2017-10-12T00:17:13.891Z,69.60
2017-10-12T00:19:42.595Z,70.10
2017-10-12T00:22:10.134Z,69.50
2017-10-12T00:24:37.703Z,69.70
2017-10-12T00:27:05.271Z,69.60
2017-10-12T00:29:37.764Z,69.60
2017-10-12T00:32:05.365Z,69.60
2017-10-12T00:34:32.993Z,69.80
2017-10-12T00:37:02.042Z,69.80
2017-10-12T00:39:29.628Z,69.70
2017-10-12T00:41:57.199Z,69.60
2017-10-12T00:44:24.720Z,69.80
2017-10-12T00:46:52.381Z,69.80
2017-10-12T00:49:20.037Z,69.90
2017-10-12T00:51:47.562Z,69.80
2017-10-12T00:54:15.943Z,70.50
2017-10-12T00:56:44.258Z,70.30
2017-10-12T00:59:11.818Z,69.90
2017-10-12T01:01:39.381Z,69.90
2017-10-12T01:04:06.910Z,69.80
2017-10-12T01:06:34.887Z,69.70
2017-10-12T01:09:08.241Z,70.40
2017-10-12T01:11:35.897Z,69.80
2017-10-12T01:14:04.224Z,69.80
2017-10-12T01:16:32.587Z,70.40
2017-10-12T01:19:01.306Z,69.50
2017-10-12T01:21:28.837Z,69.50
2017-10-12T01:23:57.144Z,70.20
2017-10-12T01:26:24.840Z,69.60
2017-10-12T01:28:53.147Z,69.60
2017-10-12T01:31:21.520Z,70.20
2017-10-12T01:33:49.505Z,69.70
2017-10-12T01:36:17.831Z,70.60
2017-10-12T01:38:45.370Z,69.80
2017-10-12T01:41:12.961Z,69.90
2017-10-12T01:43:40.503Z,69.80
2017-10-12T01:46:13.871Z,69.70
2017-10-12T01:48:57.339Z,69.70
2017-10-12T01:51:24.879Z,69.80
2017-10-12T01:53:52.451Z,70.00
2017-10-12T01:56:19.987Z,69.90
2017-10-12T01:58:48.325Z,70.10
2017-10-12T02:01:16.315Z,70.10
2017-10-12T02:03:43.863Z,70.20
2017-10-12T02:06:11.378Z,70.40
2017-10-12T02:08:38.993Z,71.00
2017-10-12T02:11:06.580Z,72.30
2017-10-12T02:13:34.158Z,72.70
2017-10-12T02:16:01.683Z,73.40
2017-10-12T02:18:30.010Z,74.30
2017-10-12T02:20:57.555Z,74.30
2017-10-12T02:23:25.095Z,74.90
2017-10-12T02:25:53.494Z,75.80
2017-10-12T02:28:21.197Z,75.30
2017-10-12T02:30:48.750Z,75.60
2017-10-12T02:33:16.268Z,76.30
2017-10-12T02:35:43.897Z,76.70
2017-10-12T02:38:11.483Z,76.90
2017-10-12T02:40:39.787Z,77.80
2017-10-12T02:43:07.362Z,77.50
2017-10-12T02:45:36.102Z,78.50
2017-10-12T02:48:04.436Z,78.90
2017-10-12T02:50:31.953Z,79.40
2017-10-12T02:53:00.355Z,80.40
2017-10-12T02:55:28.703Z,79.80
2017-10-12T02:57:57.095Z,80.70
2017-10-12T03:00:24.682Z,80.60
2017-10-12T03:02:52.255Z,80.40
2017-10-12T03:05:19.832Z,80.70
2017-10-12T03:07:47.392Z,80.90
2017-10-12T03:10:14.986Z,81.20
2017-10-12T03:12:43.272Z,82.30
2017-10-12T03:15:11.587Z,83.80
2017-10-12T03:17:44.154Z,83.50
2017-10-12T03:20:11.719Z,83.30
2017-10-12T03:22:39.278Z,84.10
2017-10-12T03:25:06.836Z,84.30
2017-10-12T03:27:34.474Z,89.70
2017-10-12T03:30:02.164Z,85.00
2017-10-12T03:32:29.788Z,85.00
2017-10-12T03:34:58.198Z,85.40
2017-10-12T03:37:25.757Z,85.30
2017-10-12T03:39:53.731Z,85.70
2017-10-12T03:42:21.323Z,85.60
2017-10-12T03:44:48.910Z,85.50
2017-10-12T03:47:17.253Z,85.90
2017-10-12T03:49:44.814Z,85.40
2017-10-12T03:52:12.398Z,85.20
2017-10-12T03:54:39.941Z,85.20
2017-10-12T03:57:07.560Z,85.30
2017-10-12T03:59:35.116Z,85.60
2017-10-12T04:02:02.714Z,86.40
2017-10-12T04:04:30.285Z,87.00
2017-10-12T04:06:57.856Z,87.20
2017-10-12T04:09:25.456Z,87.40
2017-10-12T04:11:53.008Z,87.70
2017-10-12T04:14:21.356Z,88.30
2017-10-12T04:16:48.868Z,88.10
2017-10-12T04:19:16.377Z,89.00
2017-10-12T04:21:43.923Z,88.90
2017-10-12T04:24:13.017Z,90.00
2017-10-12T04:26:40.592Z,89.80
2017-10-12T04:29:13.562Z,89.70
2017-10-12T04:31:41.127Z,90.00
2017-10-12T04:34:08.782Z,89.90
2017-10-12T04:36:36.421Z,90.10
2017-10-12T04:39:04.011Z,89.40
2017-10-12T04:41:31.639Z,89.00
2017-10-12T04:43:59.253Z,88.70
2017-10-12T04:46:27.712Z,89.00
2017-10-12T04:48:55.306Z,88.50
2017-10-12T04:51:23.638Z,89.10
2017-10-12T04:53:51.363Z,88.40
2017-10-12T04:56:20.100Z,87.80
2017-10-12T04:58:48.511Z,87.40
2017-10-12T05:01:16.061Z,87.10
2017-10-12T05:03:43.655Z,86.50
2017-10-12T05:06:12.129Z,86.40
2017-10-12T05:08:40.450Z,85.90
2017-10-12T05:11:07.984Z,85.20
2017-10-12T05:13:35.568Z,85.50
2017-10-12T05:16:03.508Z,85.40
2017-10-12T05:18:31.106Z,85.50
2017-10-12T05:20:58.711Z,85.50
2017-10-12T05:23:26.289Z,85.40
2017-10-12T05:25:54.649Z,86.10
2017-10-12T05:28:27.129Z,85.30
2017-10-12T05:30:55.456Z,85.90
2017-10-12T05:33:23.020Z,85.30
2017-10-12T05:35:50.541Z,85.10
2017-10-12T05:38:18.915Z,84.50
2017-10-12T05:40:47.244Z,83.90
2017-10-12T05:43:14.786Z,83.20
2017-10-12T05:45:42.442Z,83.30
2017-10-12T05:48:12.843Z,83.20
2017-10-12T05:50:40.605Z,83.30
2017-10-12T05:53:08.926Z,83.60
2017-10-12T05:55:36.520Z,83.30
2017-10-12T05:58:04.042Z,83.40
2017-10-12T06:00:31.671Z,83.20
2017-10-12T06:02:59.660Z,83.10
2017-10-12T06:05:27.176Z,83.00
2017-10-12T06:07:54.735Z,82.80
2017-10-12T06:10:22.668Z,82.40
2017-10-12T06:12:50.652Z,82.20
2017-10-12T06:15:18.240Z,82.50
2017-10-12T06:17:45.781Z,81.50
2017-10-12T06:20:13.365Z,81.20
2017-10-12T06:22:40.906Z,80.10
2017-10-12T06:25:09.003Z,79.60
2017-10-12T06:27:37.317Z,80.30
2017-10-12T06:30:04.893Z,78.70
2017-10-12T06:32:32.437Z,78.60
2017-10-12T06:35:09.586Z,78.80
2017-10-12T06:37:37.143Z,78.50
2017-10-12T06:40:04.669Z,77.90
2017-10-12T06:42:32.211Z,76.90
2017-10-12T06:44:59.820Z,74.10
2017-10-12T06:47:27.365Z,71.10
2017-10-12T06:49:54.993Z,68.00
2017-10-12T06:52:22.526Z,67.60
2017-10-12T06:54:50.839Z,70.20
2017-10-12T06:57:18.407Z,70.10
2017-10-12T06:59:45.915Z,71.20
2017-10-12T07:02:14.202Z,73.20
2017-10-12T07:04:42.552Z,73.40
2017-10-12T07:07:10.077Z,73.30
2017-10-12T07:09:37.697Z,73.70
2017-10-12T07:12:06.052Z,73.20
2017-10-12T07:14:33.622Z,72.40
2017-10-12T07:17:02.735Z,71.50
2017-10-12T07:19:31.660Z,71.60
2017-10-12T07:21:59.205Z,71.50
2017-10-12T07:24:26.741Z,70.70
2017-10-12T07:26:55.846Z,70.10
2017-10-12T07:29:24.153Z,70.40
2017-10-12T07:31:51.741Z,70.20
2017-10-12T07:34:19.319Z,69.60
2017-10-12T07:36:46.917Z,69.60
2017-10-12T07:39:15.280Z,69.70
2017-10-12T07:41:42.859Z,69.60
2017-10-12T07:44:10.397Z,69.50
2017-10-12T07:46:37.928Z,69.30
2017-10-12T07:49:05.665Z,69.60
2017-10-12T07:51:33.230Z,70.20
2017-10-12T07:54:00.820Z,70.20
2017-10-12T07:56:29.179Z,69.10
2017-10-12T07:58:56.752Z,69.10
2017-10-12T08:01:25.890Z,68.60
2017-10-12T08:03:54.204Z,68.70
2017-10-12T08:06:21.822Z,68.70
2017-10-12T08:08:50.427Z,69.40
2017-10-12T08:11:18.037Z,68.60
2017-10-12T08:13:45.632Z,68.80
2017-10-12T08:16:13.214Z,67.90
2017-10-12T08:18:40.817Z,68.20
2017-10-12T08:21:08.337Z,67.80
2017-10-12T08:23:35.979Z,67.40
2017-10-12T08:26:04.319Z,66.30
2017-10-12T08:28:32.036Z,65.60
2017-10-12T08:31:00.369Z,62.50
2017-10-12T08:33:32.950Z,62.50
2017-10-12T08:36:00.490Z,60.90
2017-10-12T08:38:28.124Z,58.00
2017-10-12T08:40:55.717Z,56.90
2017-10-12T08:43:23.378Z,54.80
2017-10-12T08:45:51.076Z,52.70
2017-10-12T08:48:19.345Z,50.70
2017-10-12T08:50:46.885Z,50.80
2017-10-12T08:53:14.673Z,51.20
2017-10-12T08:55:43.732Z,54.20
2017-10-12T08:58:11.250Z,54.10
2017-10-12T09:00:39.600Z,56.80
2017-10-12T09:03:07.214Z,56.40
2017-10-12T09:05:34.765Z,55.80
2017-10-12T09:08:02.288Z,55.70
2017-10-12T09:10:31.474Z,56.60
2017-10-12T09:12:59.032Z,56.60
2017-10-12T09:15:26.604Z,56.70
2017-10-12T09:17:54.163Z,56.50
2017-10-12T09:20:21.723Z,57.30
2017-10-12T09:22:50.797Z,57.40
2017-10-12T09:25:18.340Z,57.40
2017-10-12T09:27:46.007Z,58.40
2017-10-12T09:30:13.658Z,57.30
2017-10-12T09:32:41.202Z,58.00
2017-10-12T09:35:09.569Z,57.80
2017-10-12T09:37:38.010Z,57.00
2017-10-12T09:40:05.532Z,56.60
2017-10-12T09:42:33.123Z,57.20
2017-10-12T09:45:00.828Z,57.50
2017-10-12T09:47:29.218Z,56.60
2017-10-12T09:49:57.618Z,56.90
2017-10-12T09:52:25.180Z,56.30
2017-10-12T09:54:52.761Z,56.90
2017-10-12T09:57:20.334Z,55.10
2017-10-12T09:59:47.917Z,54.00
2017-10-12T10:02:17.022Z,54.20
2017-10-12T10:04:45.394Z,53.50
2017-10-12T10:07:12.979Z,52.00
2017-10-12T10:09:41.312Z,52.30
2017-10-12T10:12:08.821Z,51.30
2017-10-12T10:14:37.226Z,51.60
2017-10-12T10:17:04.830Z,51.50
2017-10-12T10:19:32.358Z,50.80
2017-10-12T10:21:59.979Z,51.40
2017-10-12T10:24:28.615Z,51.30
2017-10-12T10:26:56.317Z,49.70
2017-10-12T10:29:24.636Z,49.00
2017-10-12T10:31:52.205Z,49.40
2017-10-12T10:34:19.725Z,47.10
2017-10-12T10:36:48.060Z,46.40
2017-10-12T10:39:15.603Z,45.90
2017-10-12T10:41:43.179Z,45.20
2017-10-12T10:44:10.753Z,43.70
2017-10-12T10:46:38.370Z,43.60
2017-10-12T10:49:05.975Z,44.00
2017-10-12T10:51:33.511Z,43.50
2017-10-12T10:54:01.100Z,42.10
2017-10-12T10:56:28.669Z,41.50
2017-10-12T10:59:01.183Z,40.80
2017-10-12T11:01:28.815Z,41.40
2017-10-12T11:03:56.325Z,41.10
2017-10-12T11:06:23.921Z,39.20
2017-10-12T11:08:51.481Z,38.50
2017-10-12T11:11:19.024Z,38.20
2017-10-12T11:13:46.573Z,38.60
2017-10-12T11:16:14.160Z,37.60
2017-10-12T11:18:41.725Z,37.70
2017-10-12T11:21:09.354Z,39.20
2017-10-12T11:23:37.692Z,40.90
2017-10-12T11:26:06.042Z,42.90
2017-10-12T11:28:33.585Z,43.20
2017-10-12T11:31:01.160Z,42.70
2017-10-12T11:33:28.758Z,41.50
2017-10-12T11:35:56.296Z,41.90
2017-10-12T11:38:23.873Z,42.40
2017-10-12T11:40:53.117Z,43.50
2017-10-12T11:43:20.646Z,43.70
2017-10-12T11:45:49.356Z,44.20
2017-10-12T11:48:16.959Z,44.00
2017-10-12T11:50:45.689Z,43.60
2017-10-12T11:53:14.017Z,44.60
2017-10-12T11:55:41.986Z,44.20
2017-10-12T11:58:09.563Z,44.70
2017-10-12T12:00:37.494Z,45.30
2017-10-12T12:03:05.129Z,46.00
2017-10-12T12:05:32.711Z,45.80
2017-10-12T12:08:00.243Z,46.00
2017-10-12T12:10:28.643Z,47.20
2017-10-12T12:12:56.264Z,45.70
2017-10-12T12:15:23.894Z,44.70
2017-10-12T12:17:51.477Z,44.20
2017-10-12T12:20:19.019Z,43.90
2017-10-12T12:22:46.684Z,43.30
2017-10-12T12:25:14.230Z,43.70
2017-10-12T12:27:41.932Z,42.90
2017-10-12T12:30:10.411Z,41.10
2017-10-12T12:32:38.359Z,40.80
2017-10-12T12:35:06.179Z,40.80
2017-10-12T12:37:33.776Z,40.70
2017-10-12T12:40:01.395Z,41.30
2017-10-12T12:42:29.765Z,40.60
2017-10-12T12:44:58.076Z,40.60
2017-10-12T12:47:25.695Z,41.10
2017-10-12T12:49:53.244Z,41.60
2017-10-12T12:52:20.801Z,42.20
2017-10-12T12:54:48.360Z,41.70
2017-10-12T12:57:15.905Z,42.00
2017-10-12T12:59:43.491Z,42.80
2017-10-12T13:02:11.081Z,42.90
2017-10-12T13:04:38.628Z,43.50
2017-10-12T13:07:07.809Z,43.30
2017-10-12T13:09:35.354Z,42.60
2017-10-12T13:12:02.878Z,42.20
2017-10-12T13:14:30.472Z,41.80
2017-10-12T13:16:58.016Z,42.30
2017-10-12T13:19:25.639Z,42.80
2017-10-12T13:21:53.943Z,43.70
2017-10-12T13:24:21.651Z,43.10
2017-10-12T13:26:49.618Z,43.30
2017-10-12T13:29:18.040Z,44.90
2017-10-12T13:31:45.673Z,44.50
2017-10-12T13:34:13.990Z,44.80
2017-10-12T13:36:41.546Z,43.90
2017-10-12T13:39:09.187Z,44.40
2017-10-12T13:41:37.556Z,44.60
2017-10-12T13:44:05.947Z,45.20
2017-10-12T13:46:34.296Z,45.80
2017-10-12T13:49:02.025Z,44.80
2017-10-12T13:51:29.615Z,45.50
2017-10-12T13:53:57.247Z,46.00
2017-10-12T13:56:24.912Z,45.70
2017-10-12T13:58:52.778Z,45.60
2017-10-12T14:01:20.672Z,46.20
2017-10-12T14:03:48.513Z,44.50
2017-10-12T14:06:16.099Z,44.20
2017-10-12T14:08:43.617Z,43.60
2017-10-12T14:11:11.234Z,44.70
2017-10-12T14:13:38.857Z,44.80
2017-10-12T14:16:06.563Z,45.50
2017-10-12T14:18:34.937Z,47.30
2017-10-12T14:21:02.481Z,47.20
2017-10-12T14:23:30.055Z,45.60
2017-10-12T14:25:57.598Z,45.60
2017-10-12T14:28:25.253Z,46.50
2017-10-12T14:30:52.792Z,46.60
2017-10-12T14:33:20.378Z,46.80
2017-10-12T14:35:47.921Z,47.90
2017-10-12T14:38:15.436Z,48.70
2017-10-12T14:40:43.007Z,47.60
2017-10-12T14:43:11.308Z,48.70
2017-10-12T14:45:38.923Z,48.20
2017-10-12T14:48:06.487Z,48.10
2017-10-12T14:50:34.073Z,48.10
2017-10-12T14:53:02.421Z,48.90
2017-10-12T14:55:29.949Z,48.40
2017-10-12T14:57:57.532Z,48.90
2017-10-12T15:00:25.093Z,48.80
2017-10-12T15:02:52.659Z,49.10
2017-10-12T15:05:20.227Z,49.60
2017-10-12T15:07:47.977Z,49.80
2017-10-12T15:10:15.511Z,49.90
2017-10-12T15:12:43.102Z,50.30
2017-10-12T15:15:10.669Z,50.40
2017-10-12T15:17:38.273Z,51.10
2017-10-12T15:20:05.816Z,51.10
2017-10-12T15:22:34.131Z,51.90
2017-10-12T15:25:01.687Z,51.70
2017-10-12T15:27:42.151Z,51.80
2017-10-12T15:30:09.702Z,52.20
2017-10-12T15:32:37.277Z,52.80
2017-10-12T15:35:04.888Z,53.10
2017-10-12T15:37:32.495Z,53.50
2017-10-12T15:40:00.087Z,53.60
2017-10-12T15:42:28.755Z,53.70
2017-10-12T15:44:56.270Z,53.60
2017-10-12T15:47:24.682Z,54.50
2017-10-12T15:49:52.246Z,54.40
2017-10-12T15:52:19.826Z,54.50
2017-10-12T15:54:47.395Z,54.60
2017-10-12T15:57:14.995Z,54.80
2017-10-12T15:59:42.977Z,54.80
2017-10-12T16:02:10.509Z,55.50
2017-10-12T16:04:38.854Z,55.30
2017-10-12T16:07:06.385Z,55.20
2017-10-12T16:09:33.975Z,55.40
2017-10-12T16:12:01.536Z,55.70
2017-10-12T16:14:29.651Z,56.00
2017-10-12T16:16:57.972Z,56.30
2017-10-12T16:19:26.325Z,56.50
2017-10-12T16:21:54.288Z,56.90
2017-10-12T16:24:22.269Z,57.10
2017-10-12T16:26:50.214Z,57.40
2017-10-12T16:29:17.752Z,57.80
2017-10-12T16:31:45.408Z,58.10
2017-10-12T16:34:12.909Z,58.30
2017-10-12T16:36:41.273Z,59.00
2017-10-12T16:39:09.585Z,59.50
2017-10-12T16:41:37.103Z,58.90
2017-10-12T16:44:04.761Z,58.80
2017-10-12T16:46:32.304Z,59.40
2017-10-12T16:48:59.959Z,59.30
2017-10-12T16:51:27.542Z,59.80
2017-10-12T16:53:55.196Z,59.90
2017-10-12T16:56:22.746Z,59.80
2017-10-12T16:58:50.291Z,59.70
2017-10-12T17:01:18.273Z,59.90
2017-10-12T17:03:45.820Z,60.00
2017-10-12T17:06:13.369Z,60.30
2017-10-12T17:08:41.102Z,60.40
2017-10-12T17:11:09.412Z,61.10
2017-10-12T17:16:06.052Z,60.70
2017-10-12T17:18:33.685Z,60.70
2017-10-12T17:21:01.310Z,60.70
2017-10-12T17:25:57.160Z,60.70
2017-10-12T17:28:26.460Z,61.20
2017-10-12T17:33:22.190Z,61.00
2017-10-12T17:38:19.307Z,61.30
2017-10-12T17:40:47.122Z,60.90
2017-10-12T17:43:20.104Z,60.90
2017-10-12T17:45:48.800Z,61.50
2017-10-12T17:48:17.578Z,61.30
2017-10-12T17:50:45.707Z,60.90
2017-10-12T17:53:13.720Z,60.80
2017-10-12T17:55:41.803Z,60.50
2017-10-12T17:58:09.682Z,60.90
2017-10-12T18:00:37.761Z,60.80
2017-10-12T18:03:05.717Z,60.70
2017-10-12T18:05:33.779Z,60.70
2017-10-12T18:08:01.670Z,62.10
2017-10-12T18:10:34.299Z,61.10
2017-10-12T18:13:02.017Z,61.30
2017-10-12T18:15:30.507Z,62.20
2017-10-12T18:18:03.971Z,62.10
2017-10-12T18:20:31.721Z,62.00
2017-10-12T18:22:59.429Z,62.60
2017-10-12T18:25:27.483Z,62.20
2017-10-12T18:28:00.192Z,62.20
2017-10-12T18:30:28.678Z,62.70
2017-10-12T18:33:02.209Z,62.60
2017-10-12T18:35:29.863Z,62.20
2017-10-12T18:38:08.188Z,62.50
2017-10-12T18:40:40.369Z,61.90
2017-10-12T18:43:12.906Z,61.70
2017-10-12T18:45:50.878Z,62.20
2017-10-12T18:48:18.630Z,61.50
2017-10-12T18:50:46.249Z,61.40
2017-10-12T18:53:14.625Z,62.50
2017-10-12T18:55:42.947Z,62.10
2017-10-12T18:58:10.545Z,61.60
2017-10-12T19:00:38.494Z,61.60
2017-10-12T19:03:06.253Z,61.60
2017-10-12T19:05:34.631Z,62.10
2017-10-12T19:08:02.293Z,62.00
2017-10-12T19:10:29.938Z,61.90
2017-10-12T19:12:57.538Z,62.00
2017-10-12T19:15:25.228Z,62.10
2017-10-12T19:17:52.785Z,62.00
2017-10-12T19:20:44.215Z,62.50
2017-10-12T19:26:09.446Z,62.80
2017-10-12T19:28:37.577Z,62.60
2017-10-12T19:31:06.382Z,62.50
2017-10-12T19:33:34.277Z,62.40
2017-10-12T19:36:02.954Z,62.80
2017-10-12T19:38:31.291Z,62.60
2017-10-12T19:43:26.525Z,62.60
2017-10-12T19:45:54.289Z,62.90
2017-10-12T19:48:21.902Z,63.10
2017-10-12T19:50:50.243Z,63.40
2017-10-12T19:53:17.822Z,63.40
2017-10-12T19:55:45.412Z,63.50
2017-10-12T19:58:13.740Z,63.80
2017-10-12T20:00:41.300Z,63.80
2017-10-12T20:03:08.911Z,64.10
2017-10-12T20:05:37.400Z,64.00
2017-10-12T20:08:04.945Z,64.00
2017-10-12T20:10:33.309Z,64.00
2017-10-12T20:13:00.963Z,64.00
2017-10-12T20:15:28.522Z,64.00
2017-10-12T20:18:05.807Z,64.30
2017-10-12T20:20:33.368Z,64.40
2017-10-12T20:23:01.058Z,64.40
2017-10-12T20:25:29.357Z,65.00
2017-10-12T20:27:56.954Z,64.90
2017-10-12T20:30:24.493Z,64.80
2017-10-12T20:32:52.059Z,65.00
2017-10-12T20:35:19.589Z,65.20
2017-10-12T20:37:48.058Z,65.60
2017-10-12T20:40:16.404Z,65.60
2017-10-12T20:42:43.976Z,65.60
2017-10-12T20:45:11.521Z,65.60
2017-10-12T20:47:48.703Z,65.60
2017-10-12T20:50:16.256Z,65.60
2017-10-12T20:52:43.812Z,65.50
2017-10-12T20:55:11.413Z,65.70
2017-10-12T20:57:39.823Z,65.60
2017-10-12T21:00:08.150Z,65.70
2017-10-12T21:02:50.732Z,65.70
2017-10-12T21:05:03.368Z,65.70
2017-10-12T21:07:30.956Z,65.80
2017-10-12T21:10:02.257Z,65.70
2017-10-12T21:12:35.253Z,65.70
2017-10-12T21:15:03.018Z,65.60
2017-10-12T21:17:30.538Z,65.50
2017-10-12T21:19:58.912Z,65.20
2017-10-12T21:22:27.275Z,65.20
2017-10-12T21:24:54.796Z,65.20
2017-10-12T21:27:22.318Z,65.30
2017-10-12T21:29:50.676Z,65.60
2017-10-12T21:32:18.213Z,65.50
2017-10-12T21:34:45.883Z,65.40
2017-10-12T21:37:13.476Z,65.40
2017-10-12T21:39:41.796Z,65.60
2017-10-12T21:42:09.350Z,65.30
2017-10-12T21:44:36.881Z,65.10
2017-10-12T21:47:05.208Z,65.10
2017-10-12T21:49:42.450Z,65.10
2017-10-12T21:52:10.029Z,65.10
2017-10-12T21:54:37.601Z,64.80
2017-10-12T21:57:05.255Z,65.40
2017-10-12T21:59:32.791Z,64.80
2017-10-12T22:02:01.129Z,65.70
2017-10-12T22:04:28.685Z,65.40
2017-10-12T22:06:56.332Z,65.50
2017-10-12T22:09:23.928Z,65.60
2017-10-12T22:11:51.512Z,65.90
2017-10-12T22:14:19.923Z,66.70
2017-10-12T22:16:47.499Z,66.30
2017-10-12T22:19:15.045Z,66.80
2017-10-12T22:21:42.584Z,67.10
2017-10-12T22:24:10.864Z,67.20
2017-10-12T22:26:39.206Z,67.40
2017-10-12T22:29:06.720Z,67.30
2017-10-12T22:31:34.340Z,67.50
2017-10-12T22:34:01.898Z,67.60
2017-10-12T22:36:30.243Z,68.20
2017-10-12T22:38:57.761Z,68.20
2017-10-12T22:41:25.727Z,67.80
2017-10-12T22:43:54.085Z,68.60
2017-10-12T22:46:22.436Z,68.50
2017-10-12T22:48:49.951Z,68.30
2017-10-12T22:51:18.324Z,68.60
2017-10-12T22:53:46.680Z,68.80
2017-10-12T22:56:14.234Z,68.30
2017-10-12T22:58:41.959Z,68.50
2017-10-12T23:01:09.960Z,68.90
2017-10-12T23:03:37.889Z,69.30
2017-10-12T23:06:05.639Z,69.30
2017-10-12T23:08:33.363Z,71.40
2017-10-12T23:11:00.917Z,69.50
2017-10-12T23:13:28.427Z,69.90
2017-10-12T23:15:55.941Z,70.10
2017-10-12T23:18:23.532Z,70.30
2017-10-12T23:20:51.839Z,70.90
2017-10-12T23:23:19.416Z,70.40
2017-10-12T23:25:46.979Z,70.60
2017-10-12T23:28:20.298Z,70.70
2017-10-12T23:30:47.829Z,70.50
2017-10-12T23:33:15.376Z,70.50
2017-10-12T23:35:42.946Z,71.00
2017-10-12T23:38:10.496Z,70.40
2017-10-12T23:40:38.011Z,70.50
2017-10-12T23:43:05.576Z,70.60
2017-10-12T23:45:33.115Z,70.40
2017-10-12T23:48:07.265Z,71.00
2017-10-12T23:50:35.577Z,70.90
2017-10-12T23:53:03.128Z,70.30
2017-10-12T23:55:30.657Z,70.20
2017-10-12T23:57:58.990Z,70.70
